KPNT

Details ICAO KPNT
Name PONTIAC MUNI
Region United States
Timezone America/Chicago (UTC-6.0)
Plans Departing 17
Arriving 1
Stats Elevation 666 ft / 203 m (AMSL)
Location 40.924364° -88.623889°
Runways 1
Magnetic Variation 3.014° W
Sunrise 2017-12-17 13:14:57 UTC / 2017-12-17 07:14:57 Local
Sunset 2017-12-17 22:29:15 UTC / 2017-12-17 16:29:15 Local
Advertisement - Login to hide

Runways

ID Width Length Bearing (true) Bearing (mag) Surface Threshold Offset Overrun Length
06 75 ft / 23 m 4,994 ft / 1,522 m 59.21° 62.22° Asphalt 0 ft / 0 m 0 ft / 0 m
24 75 ft / 23 m 4,994 ft / 1,522 m 239.22° 242.23° Asphalt 0 ft / 0 m 0 ft / 0 m

Map

Weather


0- 5 10 15 20 25 30 35+ Temperature / ° C

Clouds and Precipitation
Forecast for 2017-12-18 06:00 UTC. Updated 2 hours ago

Ground ~20,000 ft ~40,000 ft Winds

METAR

KPNT 180315Z AUTO 18011KT 10SM OVC042 06/05 A3001 RMK AO2 T00620045

TAF

Not found

Frequencies

Recorded 119.67 MHz AWOS 3
Unicom 122.80 MHz CTAF/UNICOM
Warning: Do not use this data for real-world aviation or navigation. No guarantee of current accuracy is given.